sensor_id;sensor_type;location;lat;lon;timestamp;P1;durP1;ratioP1;P2;durP2;ratioP2
8891;SDS011;4482;54.332;10.118;2022-11-21T00:00:44;6.73;;;5.60;;
8891;SDS011;4482;54.332;10.118;2022-11-21T00:03:12;11.30;;;5.80;;
8891;SDS011;4482;54.332;10.118;2022-11-21T00:05:39;8.10;;;5.60;;
8891;SDS011;4482;54.332;10.118;2022-11-21T00:08:07;6.60;;;4.87;;
8891;SDS011;4482;54.332;10.118;2022-11-21T00:10:36;5.50;;;4.93;;
8891;SDS011;4482;54.332;10.118;2022-11-21T00:13:03;4.80;;;4.37;;
8891;SDS011;4482;54.332;10.118;2022-11-21T00:15:31;7.97;;;5.50;;
8891;SDS011;4482;54.332;10.118;2022-11-21T00:18:02;6.73;;;5.60;;
8891;SDS011;4482;54.332;10.118;2022-11-21T00:20:29;6.53;;;5.40;;
8891;SDS011;4482;54.332;10.118;2022-11-21T00:22:57;5.53;;;4.73;;
8891;SDS011;4482;54.332;10.118;2022-11-21T00:25:23;5.27;;;4.77;;
8891;SDS011;4482;54.332;10.118;2022-11-21T00:27:51;5.27;;;4.50;;
8891;SDS011;4482;54.332;10.118;2022-11-21T00:30:18;5.97;;;4.97;;
8891;SDS011;4482;54.332;10.118;2022-11-21T00:32:45;5.83;;;4.93;;
8891;SDS011;4482;54.332;10.118;2022-11-21T00:35:13;6.67;;;4.73;;
8891;SDS011;4482;54.332;10.118;2022-11-21T00:37:39;5.60;;;5.03;;
8891;SDS011;4482;54.332;10.118;2022-11-21T00:40:07;6.40;;;5.20;;
8891;SDS011;4482;54.332;10.118;2022-11-21T00:42:34;6.17;;;5.53;;
8891;SDS011;4482;54.332;10.118;2022-11-21T00:45:01;8.50;;;5.50;;
8891;SDS011;4482;54.332;10.118;2022-11-21T00:47:28;6.90;;;5.87;;
8891;SDS011;4482;54.332;10.118;2022-11-21T00:49:55;5.20;;;4.70;;
8891;SDS011;4482;54.332;10.118;2022-11-21T00:52:23;5.30;;;4.80;;
8891;SDS011;4482;54.332;10.118;2022-11-21T00:54:50;5.27;;;4.83;;
8891;SDS011;4482;54.332;10.118;2022-11-21T00:57:17;5.77;;;4.80;;
8891;SDS011;4482;54.332;10.118;2022-11-21T00:59:43;6.57;;;5.07;;
8891;SDS011;4482;54.332;10.118;2022-11-21T01:02:10;6.53;;;5.57;;
8891;SDS011;4482;54.332;10.118;2022-11-21T01:04:37;5.87;;;5.27;;
8891;SDS011;4482;54.332;10.118;2022-11-21T01:07:04;6.50;;;5.53;;
8891;SDS011;4482;54.332;10.118;2022-11-21T01:09:32;5.67;;;4.80;;
8891;SDS011;4482;54.332;10.118;2022-11-21T01:12:00;7.60;;;5.60;;
8891;SDS011;4482;54.332;10.118;2022-11-21T01:14:27;6.70;;;5.67;;
8891;SDS011;4482;54.332;10.118;2022-11-21T01:16:54;5.93;;;5.20;;
8891;SDS011;4482;54.332;10.118;2022-11-21T01:19:21;6.77;;;5.63;;
8891;SDS011;4482;54.332;10.118;2022-11-21T01:21:47;10.97;;;5.50;;
8891;SDS011;4482;54.332;10.118;2022-11-21T01:24:14;6.00;;;5.47;;
8891;SDS011;4482;54.332;10.118;2022-11-21T01:26:42;6.03;;;5.43;;
8891;SDS011;4482;54.332;10.118;2022-11-21T01:29:09;9.03;;;6.07;;
8891;SDS011;4482;54.332;10.118;2022-11-21T01:31:36;6.70;;;5.33;;
8891;SDS011;4482;54.332;10.118;2022-11-21T01:34:03;6.63;;;5.17;;
8891;SDS011;4482;54.332;10.118;2022-11-21T01:36:30;7.77;;;5.63;;
8891;SDS011;4482;54.332;10.118;2022-11-21T01:38:59;5.70;;;4.83;;
8891;SDS011;4482;54.332;10.118;2022-11-21T01:41:28;6.43;;;5.63;;
8891;SDS011;4482;54.332;10.118;2022-11-21T01:43:59;7.77;;;6.23;;
8891;SDS011;4482;54.332;10.118;2022-11-21T01:46:26;5.97;;;5.33;;
8891;SDS011;4482;54.332;10.118;2022-11-21T01:48:54;6.17;;;5.57;;
8891;SDS011;4482;54.332;10.118;2022-11-21T01:51:27;7.17;;;5.83;;
8891;SDS011;4482;54.332;10.118;2022-11-21T01:53:57;5.63;;;5.07;;
8891;SDS011;4482;54.332;10.118;2022-11-21T01:56:27;5.17;;;4.33;;
8891;SDS011;4482;54.332;10.118;2022-11-21T01:59:00;5.37;;;4.87;;
8891;SDS011;4482;54.332;10.118;2022-11-21T02:01:29;6.17;;;5.13;;
8891;SDS011;4482;54.332;10.118;2022-11-21T02:03:57;6.53;;;5.67;;
8891;SDS011;4482;54.332;10.118;2022-11-21T02:06:27;5.93;;;5.33;;
8891;SDS011;4482;54.332;10.118;2022-11-21T02:08:56;7.63;;;5.67;;
8891;SDS011;4482;54.332;10.118;2022-11-21T02:11:26;6.87;;;5.50;;
8891;SDS011;4482;54.332;10.118;2022-11-21T02:13:56;5.27;;;4.77;;
8891;SDS011;4482;54.332;10.118;2022-11-21T02:16:26;6.10;;;5.47;;
8891;SDS011;4482;54.332;10.118;2022-11-21T02:18:53;6.07;;;5.47;;
8891;SDS011;4482;54.332;10.118;2022-11-21T02:21:22;6.93;;;5.43;;
8891;SDS011;4482;54.332;10.118;2022-11-21T02:23:59;7.60;;;5.13;;
8891;SDS011;4482;54.332;10.118;2022-11-21T02:26:31;7.07;;;5.73;;
8891;SDS011;4482;54.332;10.118;2022-11-21T02:28:59;8.73;;;5.97;;
8891;SDS011;4482;54.332;10.118;2022-11-21T02:31:26;6.20;;;5.60;;
8891;SDS011;4482;54.332;10.118;2022-11-21T02:33:53;6.60;;;5.40;;
8891;SDS011;4482;54.332;10.118;2022-11-21T02:36:28;10.30;;;5.37;;
8891;SDS011;4482;54.332;10.118;2022-11-21T02:39:08;6.23;;;5.60;;
8891;SDS011;4482;54.332;10.118;2022-11-21T02:41:41;7.77;;;5.93;;
8891;SDS011;4482;54.332;10.118;2022-11-21T02:44:14;6.67;;;5.53;;
8891;SDS011;4482;54.332;10.118;2022-11-21T02:46:48;6.73;;;4.93;;
8891;SDS011;4482;54.332;10.118;2022-11-21T02:49:17;9.47;;;5.80;;
8891;SDS011;4482;54.332;10.118;2022-11-21T02:51:50;5.67;;;5.07;;
8891;SDS011;4482;54.332;10.118;2022-11-21T02:54:17;6.90;;;6.07;;
8891;SDS011;4482;54.332;10.118;2022-11-21T02:56:45;6.50;;;5.63;;
8891;SDS011;4482;54.332;10.118;2022-11-21T02:59:12;7.10;;;5.13;;
8891;SDS011;4482;54.332;10.118;2022-11-21T03:01:39;5.87;;;5.27;;
8891;SDS011;4482;54.332;10.118;2022-11-21T03:04:06;7.93;;;5.73;;
8891;SDS011;4482;54.332;10.118;2022-11-21T03:06:33;10.00;;;6.30;;
8891;SDS011;4482;54.332;10.118;2022-11-21T03:08:59;6.50;;;5.83;;
8891;SDS011;4482;54.332;10.118;2022-11-21T03:11:26;6.13;;;5.43;;
8891;SDS011;4482;54.332;10.118;2022-11-21T03:13:55;6.67;;;5.90;;
8891;SDS011;4482;54.332;10.118;2022-11-21T03:16:21;8.33;;;6.17;;
8891;SDS011;4482;54.332;10.118;2022-11-21T03:18:48;7.23;;;5.57;;
8891;SDS011;4482;54.332;10.118;2022-11-21T03:21:15;5.90;;;5.30;;
8891;SDS011;4482;54.332;10.118;2022-11-21T03:23:42;6.67;;;5.27;;
8891;SDS011;4482;54.332;10.118;2022-11-21T03:26:09;6.33;;;5.60;;
8891;SDS011;4482;54.332;10.118;2022-11-21T03:28:36;5.83;;;5.27;;
8891;SDS011;4482;54.332;10.118;2022-11-21T03:31:04;6.53;;;5.20;;
8891;SDS011;4482;54.332;10.118;2022-11-21T03:33:33;6.07;;;4.70;;
8891;SDS011;4482;54.332;10.118;2022-11-21T03:35:59;6.67;;;4.63;;
8891;SDS011;4482;54.332;10.118;2022-11-21T03:38:26;10.47;;;4.63;;
8891;SDS011;4482;54.332;10.118;2022-11-21T03:40:53;7.30;;;5.13;;
8891;SDS011;4482;54.332;10.118;2022-11-21T03:43:20;4.43;;;4.03;;
8891;SDS011;4482;54.332;10.118;2022-11-21T03:45:46;5.53;;;4.63;;
8891;SDS011;4482;54.332;10.118;2022-11-21T03:48:15;8.10;;;4.90;;
8891;SDS011;4482;54.332;10.118;2022-11-21T03:50:42;6.63;;;4.70;;
8891;SDS011;4482;54.332;10.118;2022-11-21T03:53:09;5.83;;;4.63;;
8891;SDS011;4482;54.332;10.118;2022-11-21T03:55:35;6.17;;;4.50;;
8891;SDS011;4482;54.332;10.118;2022-11-21T03:58:02;3.90;;;3.50;;
8891;SDS011;4482;54.332;10.118;2022-11-21T04:00:29;3.90;;;3.60;;
8891;SDS011;4482;54.332;10.118;2022-11-21T04:02:56;4.50;;;4.10;;
8891;SDS011;4482;54.332;10.118;2022-11-21T04:05:24;5.13;;;3.93;;
8891;SDS011;4482;54.332;10.118;2022-11-21T04:07:51;5.17;;;4.27;;
8891;SDS011;4482;54.332;10.118;2022-11-21T04:10:18;4.37;;;3.97;;
8891;SDS011;4482;54.332;10.118;2022-11-21T04:12:45;5.93;;;5.33;;
8891;SDS011;4482;54.332;10.118;2022-11-21T04:15:12;4.57;;;4.17;;
8891;SDS011;4482;54.332;10.118;2022-11-21T04:17:39;6.37;;;4.87;;
8891;SDS011;4482;54.332;10.118;2022-11-21T04:20:06;5.80;;;4.33;;
8891;SDS011;4482;54.332;10.118;2022-11-21T04:22:35;4.73;;;4.23;;
8891;SDS011;4482;54.332;10.118;2022-11-21T04:25:02;4.70;;;4.30;;
8891;SDS011;4482;54.332;10.118;2022-11-21T04:27:29;4.47;;;4.10;;
8891;SDS011;4482;54.332;10.118;2022-11-21T04:29:56;7.67;;;5.33;;
8891;SDS011;4482;54.332;10.118;2022-11-21T04:32:23;5.73;;;4.73;;
8891;SDS011;4482;54.332;10.118;2022-11-21T04:34:50;4.97;;;4.47;;
8891;SDS011;4482;54.332;10.118;2022-11-21T04:37:16;4.40;;;4.00;;
8891;SDS011;4482;54.332;10.118;2022-11-21T04:39:45;5.50;;;4.73;;
8891;SDS011;4482;54.332;10.118;2022-11-21T04:42:11;8.53;;;4.97;;
8891;SDS011;4482;54.332;10.118;2022-11-21T04:44:38;4.37;;;3.90;;
8891;SDS011;4482;54.332;10.118;2022-11-21T04:47:05;10.47;;;4.70;;
8891;SDS011;4482;54.332;10.118;2022-11-21T04:49:32;5.63;;;3.97;;
8891;SDS011;4482;54.332;10.118;2022-11-21T04:51:58;3.90;;;3.60;;
8891;SDS011;4482;54.332;10.118;2022-11-21T04:54:25;4.90;;;4.33;;
8891;SDS011;4482;54.332;10.118;2022-11-21T04:56:53;4.30;;;3.80;;
8891;SDS011;4482;54.332;10.118;2022-11-21T04:59:20;4.37;;;3.97;;
8891;SDS011;4482;54.332;10.118;2022-11-21T05:01:47;4.60;;;4.13;;
8891;SDS011;4482;54.332;10.118;2022-11-21T05:04:14;5.50;;;4.30;;
8891;SDS011;4482;54.332;10.118;2022-11-21T05:06:41;4.87;;;4.37;;
8891;SDS011;4482;54.332;10.118;2022-11-21T05:09:08;5.03;;;4.47;;
8891;SDS011;4482;54.332;10.118;2022-11-21T05:11:35;5.37;;;4.00;;
8891;SDS011;4482;54.332;10.118;2022-11-21T05:14:20;4.90;;;4.20;;
8891;SDS011;4482;54.332;10.118;2022-11-21T05:16:50;4.60;;;3.93;;
8891;SDS011;4482;54.332;10.118;2022-11-21T05:19:16;4.63;;;4.20;;
8891;SDS011;4482;54.332;10.118;2022-11-21T05:21:43;4.70;;;4.20;;
8891;SDS011;4482;54.332;10.118;2022-11-21T05:24:10;6.50;;;3.97;;
8891;SDS011;4482;54.332;10.118;2022-11-21T05:26:37;4.23;;;3.90;;
8891;SDS011;4482;54.332;10.118;2022-11-21T05:29:04;3.97;;;3.67;;
8891;SDS011;4482;54.332;10.118;2022-11-21T05:31:32;4.97;;;4.10;;
8891;SDS011;4482;54.332;10.118;2022-11-21T05:33:59;4.33;;;3.30;;
8891;SDS011;4482;54.332;10.118;2022-11-21T05:36:26;4.57;;;3.93;;
8891;SDS011;4482;54.332;10.118;2022-11-21T05:38:53;4.43;;;3.70;;
8891;SDS011;4482;54.332;10.118;2022-11-21T05:41:19;4.10;;;3.70;;
8891;SDS011;4482;54.332;10.118;2022-11-21T05:43:46;6.20;;;4.07;;
8891;SDS011;4482;54.332;10.118;2022-11-21T05:46:13;3.90;;;3.50;;
8891;SDS011;4482;54.332;10.118;2022-11-21T05:48:42;4.17;;;3.60;;
8891;SDS011;4482;54.332;10.118;2022-11-21T05:51:09;3.97;;;3.47;;
8891;SDS011;4482;54.332;10.118;2022-11-21T05:53:37;4.57;;;4.17;;
8891;SDS011;4482;54.332;10.118;2022-11-21T05:56:04;6.37;;;3.67;;
8891;SDS011;4482;54.332;10.118;2022-11-21T05:58:32;4.00;;;3.63;;
8891;SDS011;4482;54.332;10.118;2022-11-21T06:01:00;4.60;;;4.00;;
8891;SDS011;4482;54.332;10.118;2022-11-21T06:03:27;14.83;;;9.17;;
8891;SDS011;4482;54.332;10.118;2022-11-21T06:06:04;26.07;;;15.33;;
8891;SDS011;4482;54.332;10.118;2022-11-21T06:08:33;6.80;;;5.20;;
8891;SDS011;4482;54.332;10.118;2022-11-21T06:11:01;4.43;;;4.07;;
8891;SDS011;4482;54.332;10.118;2022-11-21T06:13:29;4.10;;;3.70;;
8891;SDS011;4482;54.332;10.118;2022-11-21T06:15:58;5.10;;;4.53;;
8891;SDS011;4482;54.332;10.118;2022-11-21T06:18:26;4.73;;;4.33;;
8891;SDS011;4482;54.332;10.118;2022-11-21T06:20:59;4.33;;;3.93;;
8891;SDS011;4482;54.332;10.118;2022-11-21T06:23:27;5.60;;;4.33;;
8891;SDS011;4482;54.332;10.118;2022-11-21T06:25:55;5.50;;;4.07;;
8891;SDS011;4482;54.332;10.118;2022-11-21T06:28:22;4.17;;;3.83;;
8891;SDS011;4482;54.332;10.118;2022-11-21T06:30:49;4.60;;;4.10;;
8891;SDS011;4482;54.332;10.118;2022-11-21T06:33:16;31.60;;;18.50;;
8891;SDS011;4482;54.332;10.118;2022-11-21T06:35:43;18.77;;;10.80;;
8891;SDS011;4482;54.332;10.118;2022-11-21T06:38:10;6.93;;;5.50;;
8891;SDS011;4482;54.332;10.118;2022-11-21T06:40:39;5.20;;;4.67;;
8891;SDS011;4482;54.332;10.118;2022-11-21T06:43:05;6.17;;;4.20;;
8891;SDS011;4482;54.332;10.118;2022-11-21T06:45:32;5.13;;;4.63;;
8891;SDS011;4482;54.332;10.118;2022-11-21T06:48:00;4.83;;;4.33;;
8891;SDS011;4482;54.332;10.118;2022-11-21T06:50:27;5.27;;;4.17;;
8891;SDS011;4482;54.332;10.118;2022-11-21T06:52:55;4.33;;;3.87;;
8891;SDS011;4482;54.332;10.118;2022-11-21T06:55:23;4.50;;;4.10;;
8891;SDS011;4482;54.332;10.118;2022-11-21T06:57:52;3.97;;;3.67;;
8891;SDS011;4482;54.332;10.118;2022-11-21T07:00:21;16.10;;;8.60;;
8891;SDS011;4482;54.332;10.118;2022-11-21T07:02:49;5.53;;;5.03;;
8891;SDS011;4482;54.332;10.118;2022-11-21T07:05:16;5.60;;;4.43;;
8891;SDS011;4482;54.332;10.118;2022-11-21T07:07:43;6.33;;;4.10;;
8891;SDS011;4482;54.332;10.118;2022-11-21T07:10:10;4.97;;;4.47;;
8891;SDS011;4482;54.332;10.118;2022-11-21T07:12:36;4.90;;;4.47;;
8891;SDS011;4482;54.332;10.118;2022-11-21T07:15:22;4.93;;;4.03;;
8891;SDS011;4482;54.332;10.118;2022-11-21T07:17:49;5.67;;;4.20;;
8891;SDS011;4482;54.332;10.118;2022-11-21T07:20:16;4.70;;;4.30;;
8891;SDS011;4482;54.332;10.118;2022-11-21T07:22:43;4.93;;;4.40;;
8891;SDS011;4482;54.332;10.118;2022-11-21T07:25:10;5.17;;;4.67;;
8891;SDS011;4482;54.332;10.118;2022-11-21T07:27:36;5.83;;;4.80;;
8891;SDS011;4482;54.332;10.118;2022-11-21T07:30:03;5.03;;;4.17;;
8891;SDS011;4482;54.332;10.118;2022-11-21T07:32:32;4.73;;;4.20;;
8891;SDS011;4482;54.332;10.118;2022-11-21T07:34:59;5.10;;;4.67;;
8891;SDS011;4482;54.332;10.118;2022-11-21T07:37:28;4.57;;;4.17;;
8891;SDS011;4482;54.332;10.118;2022-11-21T07:39:55;4.37;;;4.00;;
8891;SDS011;4482;54.332;10.118;2022-11-21T07:42:22;4.60;;;3.97;;
8891;SDS011;4482;54.332;10.118;2022-11-21T07:44:49;4.77;;;4.20;;
8891;SDS011;4482;54.332;10.118;2022-11-21T07:47:15;6.67;;;4.40;;
8891;SDS011;4482;54.332;10.118;2022-11-21T07:49:44;4.07;;;3.67;;
8891;SDS011;4482;54.332;10.118;2022-11-21T07:52:10;4.70;;;3.93;;
8891;SDS011;4482;54.332;10.118;2022-11-21T07:54:37;6.17;;;4.13;;
8891;SDS011;4482;54.332;10.118;2022-11-21T07:57:04;4.57;;;4.17;;
8891;SDS011;4482;54.332;10.118;2022-11-21T07:59:31;5.90;;;4.93;;
8891;SDS011;4482;54.332;10.118;2022-11-21T08:01:58;5.20;;;4.57;;
8891;SDS011;4482;54.332;10.118;2022-11-21T08:04:24;4.33;;;3.93;;
8891;SDS011;4482;54.332;10.118;2022-11-21T08:06:53;4.23;;;3.87;;
8891;SDS011;4482;54.332;10.118;2022-11-21T08:09:20;7.70;;;4.13;;
8891;SDS011;4482;54.332;10.118;2022-11-21T08:11:47;4.30;;;3.90;;
8891;SDS011;4482;54.332;10.118;2022-11-21T08:14:13;5.47;;;4.03;;
8891;SDS011;4482;54.332;10.118;2022-11-21T08:16:40;4.00;;;3.60;;
8891;SDS011;4482;54.332;10.118;2022-11-21T08:19:07;4.70;;;4.20;;
8891;SDS011;4482;54.332;10.118;2022-11-21T08:21:34;9.13;;;4.00;;
8891;SDS011;4482;54.332;10.118;2022-11-21T08:24:02;4.90;;;3.57;;
8891;SDS011;4482;54.332;10.118;2022-11-21T08:26:34;3.70;;;3.40;;
8891;SDS011;4482;54.332;10.118;2022-11-21T08:29:01;3.63;;;3.43;;
8891;SDS011;4482;54.332;10.118;2022-11-21T08:31:27;5.20;;;4.00;;
8891;SDS011;4482;54.332;10.118;2022-11-21T08:33:54;4.17;;;3.77;;
8891;SDS011;4482;54.332;10.118;2022-11-21T08:36:21;3.57;;;3.27;;
8891;SDS011;4482;54.332;10.118;2022-11-21T08:38:48;4.37;;;3.60;;
8891;SDS011;4482;54.332;10.118;2022-11-21T08:41:17;4.00;;;3.70;;
8891;SDS011;4482;54.332;10.118;2022-11-21T08:44:01;4.47;;;3.90;;
8891;SDS011;4482;54.332;10.118;2022-11-21T08:46:28;3.73;;;3.43;;
8891;SDS011;4482;54.332;10.118;2022-11-21T08:48:57;3.90;;;3.60;;
8891;SDS011;4482;54.332;10.118;2022-11-21T08:51:24;3.37;;;3.10;;
8891;SDS011;4482;54.332;10.118;2022-11-21T08:53:51;3.70;;;3.40;;
8891;SDS011;4482;54.332;10.118;2022-11-21T08:56:19;3.80;;;3.50;;
8891;SDS011;4482;54.332;10.118;2022-11-21T08:58:46;3.57;;;3.30;;
8891;SDS011;4482;54.332;10.118;2022-11-21T09:01:13;4.23;;;3.33;;
8891;SDS011;4482;54.332;10.118;2022-11-21T09:03:43;4.17;;;3.27;;
8891;SDS011;4482;54.332;10.118;2022-11-21T09:06:09;3.83;;;3.20;;
8891;SDS011;4482;54.332;10.118;2022-11-21T09:08:38;4.57;;;3.20;;
8891;SDS011;4482;54.332;10.118;2022-11-21T09:11:05;5.50;;;3.60;;
8891;SDS011;4482;54.332;10.118;2022-11-21T09:13:35;4.60;;;4.23;;
8891;SDS011;4482;54.332;10.118;2022-11-21T09:16:02;5.90;;;3.80;;
8891;SDS011;4482;54.332;10.118;2022-11-21T09:18:47;6.07;;;4.13;;
8891;SDS011;4482;54.332;10.118;2022-11-21T09:21:16;4.83;;;4.33;;
8891;SDS011;4482;54.332;10.118;2022-11-21T09:23:44;4.30;;;3.77;;
8891;SDS011;4482;54.332;10.118;2022-11-21T09:26:11;4.43;;;4.03;;
8891;SDS011;4482;54.332;10.118;2022-11-21T09:31:28;4.73;;;3.90;;
8891;SDS011;4482;54.332;10.118;2022-11-21T09:33:55;4.33;;;3.93;;
8891;SDS011;4482;54.332;10.118;2022-11-21T09:36:22;5.57;;;3.80;;
8891;SDS011;4482;54.332;10.118;2022-11-21T09:38:50;4.43;;;4.03;;
8891;SDS011;4482;54.332;10.118;2022-11-21T09:41:20;5.33;;;4.83;;
8891;SDS011;4482;54.332;10.118;2022-11-21T09:44:13;4.60;;;4.20;;
8891;SDS011;4482;54.332;10.118;2022-11-21T09:46:57;4.30;;;4.00;;
8891;SDS011;4482;54.332;10.118;2022-11-21T09:49:32;4.30;;;3.90;;
8891;SDS011;4482;54.332;10.118;2022-11-21T09:52:05;5.43;;;4.63;;
8891;SDS011;4482;54.332;10.118;2022-11-21T09:54:33;4.77;;;4.27;;
8891;SDS011;4482;54.332;10.118;2022-11-21T09:57:07;5.10;;;4.60;;
8891;SDS011;4482;54.332;10.118;2022-11-21T09:59:37;6.90;;;5.30;;
8891;SDS011;4482;54.332;10.118;2022-11-21T10:02:09;7.77;;;5.33;;
8891;SDS011;4482;54.332;10.118;2022-11-21T10:04:39;5.47;;;4.97;;
8891;SDS011;4482;54.332;10.118;2022-11-21T10:07:07;6.27;;;5.07;;
8891;SDS011;4482;54.332;10.118;2022-11-21T10:09:41;7.40;;;4.97;;
8891;SDS011;4482;54.332;10.118;2022-11-21T10:12:19;8.50;;;5.03;;
8891;SDS011;4482;54.332;10.118;2022-11-21T10:15:07;6.77;;;5.77;;
8891;SDS011;4482;54.332;10.118;2022-11-21T10:17:56;5.77;;;5.17;;
8891;SDS011;4482;54.332;10.118;2022-11-21T10:20:42;6.23;;;5.40;;
8891;SDS011;4482;54.332;10.118;2022-11-21T10:26:21;8.03;;;5.53;;
8891;SDS011;4482;54.332;10.118;2022-11-21T10:28:55;5.33;;;4.83;;
8891;SDS011;4482;54.332;10.118;2022-11-21T10:31:27;6.93;;;5.37;;
8891;SDS011;4482;54.332;10.118;2022-11-21T10:33:58;6.37;;;5.43;;
8891;SDS011;4482;54.332;10.118;2022-11-21T10:36:28;8.50;;;5.70;;
8891;SDS011;4482;54.332;10.118;2022-11-21T10:38:59;7.10;;;5.67;;
8891;SDS011;4482;54.332;10.118;2022-11-21T10:41:35;6.63;;;5.67;;
8891;SDS011;4482;54.332;10.118;2022-11-21T10:44:10;8.30;;;6.40;;
8891;SDS011;4482;54.332;10.118;2022-11-21T10:47:01;5.83;;;5.30;;
8891;SDS011;4482;54.332;10.118;2022-11-21T10:49:38;7.57;;;6.03;;
8891;SDS011;4482;54.332;10.118;2022-11-21T10:52:06;8.77;;;6.93;;
8891;SDS011;4482;54.332;10.118;2022-11-21T10:57:31;8.00;;;6.37;;
8891;SDS011;4482;54.332;10.118;2022-11-21T11:00:12;6.90;;;6.07;;
8891;SDS011;4482;54.332;10.118;2022-11-21T11:02:57;8.97;;;6.70;;
8891;SDS011;4482;54.332;10.118;2022-11-21T11:05:29;6.90;;;5.50;;
8891;SDS011;4482;54.332;10.118;2022-11-21T11:08:04;7.33;;;6.20;;
8891;SDS011;4482;54.332;10.118;2022-11-21T11:10:33;7.43;;;5.63;;
8891;SDS011;4482;54.332;10.118;2022-11-21T11:13:02;6.43;;;5.57;;
8891;SDS011;4482;54.332;10.118;2022-11-21T11:15:58;7.63;;;6.50;;
8891;SDS011;4482;54.332;10.118;2022-11-21T11:18:30;6.30;;;5.33;;
8891;SDS011;4482;54.332;10.118;2022-11-21T11:21:08;10.17;;;6.70;;
8891;SDS011;4482;54.332;10.118;2022-11-21T11:23:38;6.67;;;5.73;;
8891;SDS011;4482;54.332;10.118;2022-11-21T11:26:16;7.27;;;6.07;;
8891;SDS011;4482;54.332;10.118;2022-11-21T11:28:48;7.10;;;5.40;;
8891;SDS011;4482;54.332;10.118;2022-11-21T11:31:15;6.53;;;5.83;;
8891;SDS011;4482;54.332;10.118;2022-11-21T11:33:49;6.33;;;5.70;;
8891;SDS011;4482;54.332;10.118;2022-11-21T11:36:22;6.33;;;5.70;;
8891;SDS011;4482;54.332;10.118;2022-11-21T11:38:59;7.27;;;5.30;;
8891;SDS011;4482;54.332;10.118;2022-11-21T11:41:41;5.70;;;5.10;;
8891;SDS011;4482;54.332;10.118;2022-11-21T11:44:43;5.30;;;4.80;;
8891;SDS011;4482;54.332;10.118;2022-11-21T11:47:35;7.93;;;5.63;;
8891;SDS011;4482;54.332;10.118;2022-11-21T11:50:10;5.67;;;5.17;;
8891;SDS011;4482;54.332;10.118;2022-11-21T11:52:47;6.57;;;5.40;;
8891;SDS011;4482;54.332;10.118;2022-11-21T11:55:20;6.57;;;5.67;;
8891;SDS011;4482;54.332;10.118;2022-11-21T11:57:51;8.10;;;5.43;;
8891;SDS011;4482;54.332;10.118;2022-11-21T12:00:24;6.30;;;5.47;;
8891;SDS011;4482;54.332;10.118;2022-11-21T12:02:56;7.47;;;5.53;;
8891;SDS011;4482;54.332;10.118;2022-11-21T12:05:30;8.27;;;5.63;;
8891;SDS011;4482;54.332;10.118;2022-11-21T12:08:02;7.20;;;5.10;;
8891;SDS011;4482;54.332;10.118;2022-11-21T12:10:36;6.50;;;5.27;;
8891;SDS011;4482;54.332;10.118;2022-11-21T12:13:27;6.20;;;5.60;;
8891;SDS011;4482;54.332;10.118;2022-11-21T12:15:56;5.97;;;5.40;;
8891;SDS011;4482;54.332;10.118;2022-11-21T12:18:29;5.87;;;5.27;;
8891;SDS011;4482;54.332;10.118;2022-11-21T12:21:04;6.93;;;5.63;;
8891;SDS011;4482;54.332;10.118;2022-11-21T12:23:39;6.40;;;5.80;;
8891;SDS011;4482;54.332;10.118;2022-11-21T12:26:17;9.57;;;6.70;;
8891;SDS011;4482;54.332;10.118;2022-11-21T12:28:57;5.73;;;5.13;;
8891;SDS011;4482;54.332;10.118;2022-11-21T12:31:33;6.97;;;5.87;;
8891;SDS011;4482;54.332;10.118;2022-11-21T12:34:11;8.07;;;6.10;;
8891;SDS011;4482;54.332;10.118;2022-11-21T12:36:51;6.43;;;5.57;;
8891;SDS011;4482;54.332;10.118;2022-11-21T12:39:38;5.90;;;5.07;;
8891;SDS011;4482;54.332;10.118;2022-11-21T12:42:13;5.63;;;5.03;;
8891;SDS011;4482;54.332;10.118;2022-11-21T12:45:19;10.23;;;5.87;;
8891;SDS011;4482;54.332;10.118;2022-11-21T12:48:00;7.50;;;5.47;;
8891;SDS011;4482;54.332;10.118;2022-11-21T12:54:18;8.13;;;6.63;;
8891;SDS011;4482;54.332;10.118;2022-11-21T12:57:13;6.80;;;5.43;;
8891;SDS011;4482;54.332;10.118;2022-11-21T12:59:49;8.37;;;6.47;;
8891;SDS011;4482;54.332;10.118;2022-11-21T13:02:27;9.70;;;7.97;;
8891;SDS011;4482;54.332;10.118;2022-11-21T13:04:59;7.03;;;6.33;;
8891;SDS011;4482;54.332;10.118;2022-11-21T13:07:29;8.43;;;6.07;;
8891;SDS011;4482;54.332;10.118;2022-11-21T13:09:59;9.40;;;5.60;;
8891;SDS011;4482;54.332;10.118;2022-11-21T13:12:30;7.57;;;6.13;;
8891;SDS011;4482;54.332;10.118;2022-11-21T13:15:04;7.07;;;5.53;;
8891;SDS011;4482;54.332;10.118;2022-11-21T13:17:44;6.80;;;5.67;;
8891;SDS011;4482;54.332;10.118;2022-11-21T13:20:22;8.77;;;6.63;;
8891;SDS011;4482;54.332;10.118;2022-11-21T13:22:55;7.87;;;6.67;;
8891;SDS011;4482;54.332;10.118;2022-11-21T13:25:37;7.43;;;5.93;;
8891;SDS011;4482;54.332;10.118;2022-11-21T13:31:00;6.27;;;5.67;;
8891;SDS011;4482;54.332;10.118;2022-11-21T13:33:43;8.00;;;6.53;;
8891;SDS011;4482;54.332;10.118;2022-11-21T13:36:35;10.53;;;7.23;;
8891;SDS011;4482;54.332;10.118;2022-11-21T13:42:04;6.17;;;5.53;;
8891;SDS011;4482;54.332;10.118;2022-11-21T13:44:53;8.77;;;7.20;;
8891;SDS011;4482;54.332;10.118;2022-11-21T13:50:42;10.00;;;5.90;;
8891;SDS011;4482;54.332;10.118;2022-11-21T13:53:31;11.10;;;7.40;;
8891;SDS011;4482;54.332;10.118;2022-11-21T13:56:11;10.67;;;7.20;;
8891;SDS011;4482;54.332;10.118;2022-11-21T13:58:54;9.63;;;6.63;;
8891;SDS011;4482;54.332;10.118;2022-11-21T14:04:34;8.10;;;6.60;;
8891;SDS011;4482;54.332;10.118;2022-11-21T14:07:20;8.43;;;6.03;;
8891;SDS011;4482;54.332;10.118;2022-11-21T14:09:49;7.03;;;6.30;;
8891;SDS011;4482;54.332;10.118;2022-11-21T14:12:18;7.30;;;6.03;;
8891;SDS011;4482;54.332;10.118;2022-11-21T14:14:50;8.37;;;6.30;;
8891;SDS011;4482;54.332;10.118;2022-11-21T14:20:07;7.53;;;6.60;;
8891;SDS011;4482;54.332;10.118;2022-11-21T14:22:40;8.47;;;5.97;;
8891;SDS011;4482;54.332;10.118;2022-11-21T14:25:13;7.63;;;6.10;;
8891;SDS011;4482;54.332;10.118;2022-11-21T14:27:44;9.17;;;6.93;;
8891;SDS011;4482;54.332;10.118;2022-11-21T14:30:28;7.80;;;6.13;;
8891;SDS011;4482;54.332;10.118;2022-11-21T14:35:50;11.13;;;7.77;;
8891;SDS011;4482;54.332;10.118;2022-11-21T14:38:19;10.57;;;6.70;;
8891;SDS011;4482;54.332;10.118;2022-11-21T14:40:47;10.80;;;6.87;;
8891;SDS011;4482;54.332;10.118;2022-11-21T14:43:22;10.23;;;7.37;;
8891;SDS011;4482;54.332;10.118;2022-11-21T14:45:57;7.30;;;6.27;;
8891;SDS011;4482;54.332;10.118;2022-11-21T14:48:24;7.13;;;6.17;;
8891;SDS011;4482;54.332;10.118;2022-11-21T14:50:52;8.47;;;6.67;;
8891;SDS011;4482;54.332;10.118;2022-11-21T14:53:20;10.80;;;7.57;;
8891;SDS011;4482;54.332;10.118;2022-11-21T14:55:48;10.10;;;7.03;;
8891;SDS011;4482;54.332;10.118;2022-11-21T14:58:17;8.47;;;6.93;;
8891;SDS011;4482;54.332;10.118;2022-11-21T15:03:28;9.23;;;6.87;;
8891;SDS011;4482;54.332;10.118;2022-11-21T15:05:57;10.07;;;7.07;;
8891;SDS011;4482;54.332;10.118;2022-11-21T15:08:25;9.93;;;7.47;;
8891;SDS011;4482;54.332;10.118;2022-11-21T15:10:52;9.30;;;6.73;;
8891;SDS011;4482;54.332;10.118;2022-11-21T15:13:21;11.63;;;6.83;;
8891;SDS011;4482;54.332;10.118;2022-11-21T15:15:50;9.87;;;7.13;;
8891;SDS011;4482;54.332;10.118;2022-11-21T15:18:21;8.07;;;6.87;;
8891;SDS011;4482;54.332;10.118;2022-11-21T15:20:50;9.50;;;7.10;;
8891;SDS011;4482;54.332;10.118;2022-11-21T15:23:26;14.10;;;7.57;;
8891;SDS011;4482;54.332;10.118;2022-11-21T15:25:54;9.17;;;6.97;;
8891;SDS011;4482;54.332;10.118;2022-11-21T15:28:22;11.97;;;7.20;;
8891;SDS011;4482;54.332;10.118;2022-11-21T15:33:58;9.30;;;6.97;;
8891;SDS011;4482;54.332;10.118;2022-11-21T15:36:26;11.30;;;7.20;;
8891;SDS011;4482;54.332;10.118;2022-11-21T15:38:54;11.87;;;8.27;;
8891;SDS011;4482;54.332;10.118;2022-11-21T15:41:29;10.60;;;7.63;;
8891;SDS011;4482;54.332;10.118;2022-11-21T15:46:49;8.80;;;7.27;;
8891;SDS011;4482;54.332;10.118;2022-11-21T15:49:17;9.57;;;7.07;;
8891;SDS011;4482;54.332;10.118;2022-11-21T15:51:45;11.13;;;7.47;;
8891;SDS011;4482;54.332;10.118;2022-11-21T15:54:13;8.87;;;6.87;;
8891;SDS011;4482;54.332;10.118;2022-11-21T15:56:41;11.70;;;7.43;;
8891;SDS011;4482;54.332;10.118;2022-11-21T15:59:08;14.23;;;8.13;;